Ana Sayfa
METAR-TAF:

METAR-TAF

Havaalanları :

Munda, New Georgia, Solomon Adaları

Enlem: 8-19-41S, Boylam: 157-15-47E, yükseklik: 3 m

Güncel hava durumu gözlemi

Rapor saat 05:00 UTC de 7 saat ve 46 dakika önce yapıldı.
Sakin rüzgar
Sıcaklık 30°C
Nem 75%
Basınç 1008 hPa
Görüş mesafesi 10 km veya daha fazla
1800 ft yükseklikte az bulutlu
1900 ft yükseklikte az bulutlu, Kümülonimbus.
10000 ft yükseklikte parçalı bulutlu

METAR: AGGM 270500Z 00000KT 9999 FEW018 FEW019CB SCT100 30/25 Q1008

Saat: 23:46 (12:46 UTC)

Tahmin

Rapor saat 11:30 UTC de 1 saat ve 16 dakika önce yapıldı.
Ayın 27'si saat 12 UTC'den ayın 28'si saat 12 UTC'ye kadar geçerli Tahmin
Rüzgar değişken yönden 3 kt
Görüş mesafesi: 1009 m
1600 ft yükseklikte az bulutlu

TAF: AGGM 271130Z 2712/2812 VRB03KT 9999 FEW016 Q 1010 1008 1007 1009

4.000'den fazla havaalanı için hava durumu gözlemleri ve tahminleri (METAR ve TAF raporları).

Kullanılabilir istasyonlar harita üzerinde sarı ve kırmızı noktalarla gösterilir.

İstasyonun adını görmek için fareyi noktanın üzerinde gezdirin.

Sonrasında hava gözlem ve tahminlerini görmek için tıklayın.

Haritayı değiştirmek için: yaklaştırmak için siyah artı işaretli yeşil düğmeye ve uzaklaştırmak için de eksi işaretli düğmeye hızla tıklayın; bitişik haritalar için yeşil okları kullanın.


METAR-TAF: